Time;durP1;ratioP1;P1;durP2;ratioP2;P2;SDS_P1;SDS_P2;PMS_P1;PMS_P2;Temp;Humidity;BMP_temperature;BMP_pressure;BME280_temperature;BME280_humidity;BME280_pressure;Samples;Min_cycle;Max_cycle;Signal;HPM_P1;HPM_P2
2021/07/03 00:00:55;;;;;;;;;13.00;10.00;;;;;;;;5064115;28;45568;-75
2021/07/03 00:03:20;;;;;;;;;13.50;13.50;;;;;;;;5056407;28;45340;-76
2021/07/03 00:05:46;;;;;;;;;12.50;11.00;;;;;;;;5058483;28;45456;-77
2021/07/03 00:08:11;;;;;;;;;17.00;14.00;;;;;;;;5051145;28;45512;-75
2021/07/03 00:10:36;;;;;;;;;14.00;11.33;;;;;;;;5062875;28;45585;-76
2021/07/03 00:13:01;;;;;;;;;14.25;12.00;;;;;;;;5064056;28;45635;-78
2021/07/03 00:15:27;;;;;;;;;14.33;12.67;;;;;;;;5055863;28;45475;-76
2021/07/03 00:17:52;;;;;;;;;13.67;11.67;;;;;;;;5058554;28;46178;-76
2021/07/03 00:20:18;;;;;;;;;13.50;12.75;;;;;;;;5064918;27;45417;-76
2021/07/03 00:22:43;;;;;;;;;11.00;10.50;;;;;;;;5052721;28;45492;-76
2021/07/03 00:25:08;;;;;;;;;14.25;11.25;;;;;;;;5060373;28;45405;-76
2021/07/03 00:27:34;;;;;;;;;12.75;12.25;;;;;;;;5049842;28;48231;-76
2021/07/03 00:29:59;;;;;;;;;15.25;14.25;;;;;;;;5052213;28;45561;-76
2021/07/03 00:32:25;;;;;;;;;17.75;12.50;;;;;;;;5053479;28;45293;-75
2021/07/03 00:34:50;;;;;;;;;12.33;12.33;;;;;;;;5051707;28;45541;-76
2021/07/03 00:37:15;;;;;;;;;14.67;13.00;;;;;;;;5054736;28;46366;-77
2021/07/03 00:39:41;;;;;;;;;13.75;12.00;;;;;;;;5053033;28;45468;-77
2021/07/03 00:42:06;;;;;;;;;15.00;14.00;;;;;;;;5053026;28;45541;-75
2021/07/03 00:44:32;;;;;;;;;11.67;11.67;;;;;;;;5055212;28;45281;-76
2021/07/03 00:47:00;;;;;;;;;14.00;12.25;;;;;;;;5058670;28;47480;-76
2021/07/03 00:49:26;;;;;;;;;15.00;12.00;;;;;;;;5059916;28;46292;-79
2021/07/03 00:51:51;;;;;;;;;12.50;11.50;;;;;;;;5055992;28;45527;-76
2021/07/03 00:54:17;;;;;;;;;14.25;12.25;;;;;;;;5054413;28;45519;-77
2021/07/03 00:56:42;;;;;;;;;12.25;10.25;;;;;;;;5049385;27;45465;-77
2021/07/03 00:59:07;;;;;;;;;12.00;12.00;;;;;;;;5062097;28;45531;-75
2021/07/03 01:01:33;;;;;;;;;11.33;9.00;;;;;;;;5059274;28;48387;-77
2021/07/03 01:03:58;;;;;;;;;13.50;11.00;;;;;;;;5062059;28;45415;-78
2021/07/03 01:06:24;;;;;;;;;11.67;9.33;;;;;;;;5069321;27;46815;-77
2021/07/03 01:08:50;;;;;;;;;12.50;11.50;;;;;;;;5051055;28;45659;-76
2021/07/03 01:11:22;;;;;;;;;14.00;12.00;;;;;;;;5062082;28;45429;-76
2021/07/03 01:13:48;;;;;;;;;9.50;9.00;;;;;;;;5062859;28;45524;-77
2021/07/03 01:16:13;;;;;;;;;11.00;10.00;;;;;;;;5060761;28;45521;-76
2021/07/03 01:18:38;;;;;;;;;14.00;11.00;;;;;;;;5055081;28;45432;-77
2021/07/03 01:21:04;;;;;;;;;12.00;10.75;;;;;;;;5053810;27;45410;-78
2021/07/03 01:23:29;;;;;;;;;13.00;11.75;;;;;;;;5051961;28;45598;-76
2021/07/03 01:25:58;;;;;;;;;17.33;11.33;;;;;;;;5061181;28;46494;-76
2021/07/03 01:28:23;;;;;;;;;12.25;12.00;;;;;;;;5062165;28;45560;-76
2021/07/03 01:30:49;;;;;;;;;12.67;10.33;;;;;;;;5061089;28;45458;-77
2021/07/03 01:33:14;;;;;;;;;13.25;12.25;;;;;;;;5055710;27;45555;-76
2021/07/03 01:35:41;;;;;;;;;14.00;12.00;;;;;;;;5050735;28;47447;-77
2021/07/03 01:38:06;;;;;;;;;13.50;12.25;;;;;;;;5054255;28;45654;-77
2021/07/03 01:40:31;;;;;;;;;16.00;11.67;;;;;;;;5050574;28;45500;-76
2021/07/03 01:42:57;;;;;;;;;11.75;11.75;;;;;;;;5062708;28;45576;-77
2021/07/03 01:45:22;;;;;;;;;13.00;13.00;;;;;;;;5055561;28;45528;-77
2021/07/03 01:47:47;;;;;;;;;11.67;11.00;;;;;;;;5050771;28;45519;-77
2021/07/03 01:50:13;;;;;;;;;13.75;12.50;;;;;;;;5051146;28;45670;-77
2021/07/03 01:52:38;;;;;;;;;13.00;12.00;;;;;;;;5066094;28;45491;-77
2021/07/03 01:55:05;;;;;;;;;11.25;8.75;;;;;;;;5058619;28;45861;-76
2021/07/03 01:57:30;;;;;;;;;10.25;10.25;;;;;;;;5056113;28;46304;-77
2021/07/03 01:59:55;;;;;;;;;12.33;11.00;;;;;;;;5068082;27;45369;-77
2021/07/03 02:02:20;;;;;;;;;17.00;12.33;;;;;;;;5059498;28;45485;-76
2021/07/03 02:04:46;;;;;;;;;12.00;12.00;;;;;;;;5059370;28;46086;-77
2021/07/03 02:07:11;;;;;;;;;13.00;11.00;;;;;;;;5063983;28;45505;-76
2021/07/03 02:09:36;;;;;;;;;11.00;10.67;;;;;;;;5057294;28;45494;-76
2021/07/03 02:12:01;;;;;;;;;12.67;12.00;;;;;;;;5055253;28;45408;-78
2021/07/03 02:14:27;;;;;;;;;12.25;12.25;;;;;;;;5060680;27;45482;-76
2021/07/03 02:16:52;;;;;;;;;11.33;11.00;;;;;;;;5058168;28;45526;-76
2021/07/03 02:19:19;;;;;;;;;12.00;11.75;;;;;;;;5063100;28;45376;-77
2021/07/03 02:21:45;;;;;;;;;13.50;11.50;;;;;;;;5051915;28;45461;-77
2021/07/03 02:24:10;;;;;;;;;12.67;11.33;;;;;;;;5052202;28;46484;-77
2021/07/03 02:26:35;;;;;;;;;12.00;10.67;;;;;;;;5052916;28;45474;-77
2021/07/03 02:29:00;;;;;;;;;12.67;11.33;;;;;;;;5061457;28;45354;-76
2021/07/03 02:31:26;;;;;;;;;13.75;10.25;;;;;;;;5052146;28;45599;-83
2021/07/03 02:33:51;;;;;;;;;12.25;10.25;;;;;;;;5058606;28;45477;-76
2021/07/03 02:36:17;;;;;;;;;13.00;13.00;;;;;;;;5054041;28;45429;-75
2021/07/03 02:38:42;;;;;;;;;15.67;12.33;;;;;;;;5050619;28;45370;-76
2021/07/03 02:41:07;;;;;;;;;14.00;10.75;;;;;;;;5059268;28;45645;-76
2021/07/03 02:43:32;;;;;;;;;13.67;13.00;;;;;;;;5065201;28;45973;-77
2021/07/03 02:45:58;;;;;;;;;13.33;11.00;;;;;;;;5063598;28;45436;-75
2021/07/03 02:48:23;;;;;;;;;12.00;12.00;;;;;;;;5053063;28;45459;-76
2021/07/03 02:50:48;;;;;;;;;14.00;14.00;;;;;;;;5052074;28;45673;-76
2021/07/03 02:53:14;;;;;;;;;14.00;13.75;;;;;;;;5051632;28;45476;-75
2021/07/03 02:55:39;;;;;;;;;15.25;13.25;;;;;;;;5052819;28;45853;-77
2021/07/03 02:58:05;;;;;;;;;12.67;11.67;;;;;;;;5055677;28;45443;-75
2021/07/03 03:00:30;;;;;;;;;13.50;12.00;;;;;;;;5058664;28;45493;-76
2021/07/03 03:02:55;;;;;;;;;11.00;10.75;;;;;;;;5056487;28;48035;-76
2021/07/03 03:05:21;;;;;;;;;16.67;13.00;;;;;;;;5054645;28;45473;-76
2021/07/03 03:07:46;;;;;;;;;15.75;11.75;;;;;;;;5059058;28;45637;-76
2021/07/03 03:10:13;;;;;;;;;19.25;12.75;;;;;;;;5055351;28;45618;-77
2021/07/03 03:12:38;;;;;;;;;17.75;12.75;;;;;;;;5060049;28;45474;-76
2021/07/03 03:15:05;;;;;;;;;14.00;13.50;;;;;;;;5058742;28;45507;-79
2021/07/03 03:17:30;;;;;;;;;14.00;12.25;;;;;;;;5060383;27;45364;-76
2021/07/03 03:19:55;;;;;;;;;18.00;16.33;;;;;;;;5062735;28;45548;-77
2021/07/03 03:22:20;;;;;;;;;18.00;13.33;;;;;;;;5059230;28;46239;-77
2021/07/03 03:24:46;;;;;;;;;15.00;13.00;;;;;;;;5048109;28;45686;-76
2021/07/03 03:27:11;;;;;;;;;15.50;13.75;;;;;;;;5067555;27;45503;-75
2021/07/03 03:29:36;;;;;;;;;15.50;11.25;;;;;;;;5061816;28;45495;-76
2021/07/03 03:32:02;;;;;;;;;12.67;12.67;;;;;;;;5061669;28;45918;-78
2021/07/03 03:34:27;;;;;;;;;13.00;11.25;;;;;;;;5062780;28;45685;-77
2021/07/03 03:36:52;;;;;;;;;14.67;12.33;;;;;;;;5063383;28;45515;-76
2021/07/03 03:39:17;;;;;;;;;13.33;11.00;;;;;;;;5057464;28;45466;-76
2021/07/03 03:41:42;;;;;;;;;13.33;10.67;;;;;;;;5075422;27;45960;-77
2021/07/03 03:44:08;;;;;;;;;10.00;10.00;;;;;;;;5061457;28;45704;-76
2021/07/03 03:46:33;;;;;;;;;14.67;14.67;;;;;;;;5056058;28;45400;-76
2021/07/03 03:48:58;;;;;;;;;10.75;10.00;;;;;;;;5055600;28;45559;-76
2021/07/03 03:51:23;;;;;;;;;14.25;12.25;;;;;;;;5050000;28;45953;-76
2021/07/03 03:53:49;;;;;;;;;12.67;11.33;;;;;;;;5053087;28;45437;-76
2021/07/03 03:56:14;;;;;;;;;12.67;12.67;;;;;;;;5059853;28;45415;-76
2021/07/03 03:58:39;;;;;;;;;9.00;9.00;;;;;;;;5052148;28;45414;-76
2021/07/03 04:01:05;;;;;;;;;10.00;10.00;;;;;;;;5052722;28;47157;-76
2021/07/03 04:03:30;;;;;;;;;11.00;11.00;;;;;;;;5056667;28;45382;-77
2021/07/03 04:05:55;;;;;;;;;15.67;13.67;;;;;;;;5058228;28;45454;-76
2021/07/03 04:08:20;;;;;;;;;12.67;11.33;;;;;;;;5050606;28;45492;-77
2021/07/03 04:10:46;;;;;;;;;13.67;12.33;;;;;;;;5050263;28;47213;-76
2021/07/03 04:13:11;;;;;;;;;11.33;10.33;;;;;;;;5066077;28;45450;-77
2021/07/03 04:15:36;;;;;;;;;11.25;10.75;;;;;;;;5057787;28;45350;-79
2021/07/03 04:18:02;;;;;;;;;16.25;10.25;;;;;;;;5055999;27;45421;-76
2021/07/03 04:20:27;;;;;;;;;10.00;8.75;;;;;;;;5061469;27;45640;-76
2021/07/03 04:22:52;;;;;;;;;13.00;11.00;;;;;;;;5062991;28;45698;-76
2021/07/03 04:25:20;;;;;;;;;12.33;11.33;;;;;;;;5060672;28;45339;-76
2021/07/03 04:27:46;;;;;;;;;11.25;9.75;;;;;;;;5058948;28;45450;-76
2021/07/03 04:30:12;;;;;;;;;14.00;11.25;;;;;;;;5053432;28;48808;-77
2021/07/03 04:32:38;;;;;;;;;15.25;10.50;;;;;;;;5051597;28;46046;-75
2021/07/03 04:35:04;;;;;;;;;12.50;11.50;;;;;;;;5054204;28;45346;-76
2021/07/03 04:37:29;;;;;;;;;12.00;10.00;;;;;;;;5056805;28;45510;-76
2021/07/03 04:39:54;;;;;;;;;12.33;11.00;;;;;;;;5062753;28;45363;-76
2021/07/03 04:42:20;;;;;;;;;12.00;12.00;;;;;;;;5056211;28;45225;-76
2021/07/03 04:44:45;;;;;;;;;15.50;10.75;;;;;;;;5052028;28;45523;-76
2021/07/03 04:47:10;;;;;;;;;16.50;12.00;;;;;;;;5054845;28;45406;-76
2021/07/03 04:49:35;;;;;;;;;10.33;10.33;;;;;;;;5062904;28;45486;-76
2021/07/03 04:52:01;;;;;;;;;9.67;9.67;;;;;;;;5053807;28;45287;-77
2021/07/03 04:54:26;;;;;;;;;12.00;12.00;;;;;;;;5056215;28;45456;-76
2021/07/03 04:57:06;;;;;;;;;13.50;11.25;;;;;;;;5056948;27;45837;-76
2021/07/03 04:59:31;;;;;;;;;11.25;10.75;;;;;;;;5051351;28;46329;-76
2021/07/03 05:01:56;;;;;;;;;9.33;9.00;;;;;;;;5048287;28;45462;-76
2021/07/03 05:04:22;;;;;;;;;11.00;10.00;;;;;;;;5063184;28;45470;-76
2021/07/03 05:06:47;;;;;;;;;14.67;11.33;;;;;;;;5053903;28;45501;-76
2021/07/03 05:09:12;;;;;;;;;13.33;11.33;;;;;;;;5054159;28;46216;-76
2021/07/03 05:11:37;;;;;;;;;15.67;12.00;;;;;;;;5056190;28;45555;-77
2021/07/03 05:14:02;;;;;;;;;14.00;12.33;;;;;;;;5062363;28;45481;-77
2021/07/03 05:16:28;;;;;;;;;13.00;10.33;;;;;;;;5052479;28;45395;-76
2021/07/03 05:18:53;;;;;;;;;13.33;12.00;;;;;;;;5052253;28;45462;-76
2021/07/03 05:21:18;;;;;;;;;12.33;11.33;;;;;;;;5053554;28;45429;-76
2021/07/03 05:23:43;;;;;;;;;10.67;10.33;;;;;;;;5058656;28;45360;-77
2021/07/03 05:26:08;;;;;;;;;15.33;13.00;;;;;;;;5062236;28;45507;-76
2021/07/03 05:28:34;;;;;;;;;12.67;11.00;;;;;;;;5050716;28;45489;-76
2021/07/03 05:30:59;;;;;;;;;10.25;10.25;;;;;;;;5062844;28;45322;-76
2021/07/03 05:33:24;;;;;;;;;18.00;12.33;;;;;;;;5055662;28;45504;-76
2021/07/03 05:35:49;;;;;;;;;12.75;10.00;;;;;;;;5050961;28;45354;-77
2021/07/03 05:38:15;;;;;;;;;11.67;11.00;;;;;;;;5053233;28;45406;-77
2021/07/03 05:40:40;;;;;;;;;10.50;10.00;;;;;;;;5061947;28;45418;-76
2021/07/03 05:43:05;;;;;;;;;15.50;12.00;;;;;;;;5063961;28;45610;-76
2021/07/03 05:45:31;;;;;;;;;16.00;14.00;;;;;;;;5056382;28;45490;-76
2021/07/03 05:47:56;;;;;;;;;14.75;13.25;;;;;;;;5054228;28;48122;-76
2021/07/03 05:50:23;;;;;;;;;10.67;10.67;;;;;;;;5061484;28;45324;-76
2021/07/03 05:52:50;;;;;;;;;13.00;12.00;;;;;;;;5061034;28;45567;-76
2021/07/03 05:55:16;;;;;;;;;13.75;13.75;;;;;;;;5063610;28;45567;-76
2021/07/03 05:57:42;;;;;;;;;10.75;10.75;;;;;;;;5051915;28;45351;-76
2021/07/03 06:00:08;;;;;;;;;12.25;10.50;;;;;;;;5049982;28;45561;-75
2021/07/03 06:02:33;;;;;;;;;15.00;10.25;;;;;;;;5051494;28;45636;-76
2021/07/03 06:04:59;;;;;;;;;12.67;11.00;;;;;;;;5056411;28;45458;-76
2021/07/03 06:07:25;;;;;;;;;11.25;10.50;;;;;;;;5054183;28;46111;-76
2021/07/03 06:09:51;;;;;;;;;12.25;10.50;;;;;;;;5063639;28;45348;-76
2021/07/03 06:12:16;;;;;;;;;12.25;10.50;;;;;;;;5060405;27;45426;-76
2021/07/03 06:14:41;;;;;;;;;10.33;10.33;;;;;;;;5061760;28;45403;-76
2021/07/03 06:17:12;;;;;;;;;11.67;11.67;;;;;;;;5065416;28;46528;-76
2021/07/03 06:19:38;;;;;;;;;11.50;10.50;;;;;;;;5058257;28;45414;-76
2021/07/03 06:22:03;;;;;;;;;13.50;13.25;;;;;;;;5066499;28;45389;-76
2021/07/03 06:24:30;;;;;;;;;15.67;12.67;;;;;;;;5063197;28;46048;-76
2021/07/03 06:26:55;;;;;;;;;13.25;11.00;;;;;;;;5059821;28;45451;-75
2021/07/03 06:29:20;;;;;;;;;12.67;12.67;;;;;;;;5065469;28;45275;-76
2021/07/03 06:31:46;;;;;;;;;13.33;10.00;;;;;;;;5063441;28;45537;-76
2021/07/03 06:34:11;;;;;;;;;13.00;11.00;;;;;;;;5067903;28;45284;-76
2021/07/03 06:36:36;;;;;;;;;10.67;10.67;;;;;;;;5060195;28;46044;-77
2021/07/03 06:39:01;;;;;;;;;12.67;10.33;;;;;;;;5059755;28;45202;-76
2021/07/03 06:41:27;;;;;;;;;13.75;12.75;;;;;;;;5064038;27;45292;-76
2021/07/03 06:43:52;;;;;;;;;14.00;10.00;;;;;;;;5064180;28;45275;-76
2021/07/03 06:46:18;;;;;;;;;15.33;11.33;;;;;;;;5063340;28;45981;-76
2021/07/03 06:48:43;;;;;;;;;10.75;10.75;;;;;;;;5061129;28;45816;-76
2021/07/03 06:51:09;;;;;;;;;9.33;9.33;;;;;;;;5056557;28;45792;-77
2021/07/03 06:53:34;;;;;;;;;9.25;9.25;;;;;;;;5077175;27;45499;-77
2021/07/03 06:56:01;;;;;;;;;13.00;10.00;;;;;;;;5063993;28;45922;-76
2021/07/03 06:58:26;;;;;;;;;11.25;10.50;;;;;;;;5054079;28;45432;-76
2021/07/03 07:00:51;;;;;;;;;9.33;9.33;;;;;;;;5051958;28;45605;-76
2021/07/03 07:03:16;;;;;;;;;10.33;10.33;;;;;;;;5052750;28;45690;-76
2021/07/03 07:05:42;;;;;;;;;10.00;10.00;;;;;;;;5060056;28;45403;-77
2021/07/03 07:08:07;;;;;;;;;13.00;10.00;;;;;;;;5063250;28;45587;-85
2021/07/03 07:10:32;;;;;;;;;12.33;11.00;;;;;;;;5065123;28;45463;-75
2021/07/03 07:13:03;;;;;;;;;10.67;9.67;;;;;;;;5060142;28;45520;-75
2021/07/03 07:15:28;;;;;;;;;10.75;9.00;;;;;;;;5044756;28;45690;-75
2021/07/03 07:17:53;;;;;;;;;11.00;9.33;;;;;;;;5048315;28;45550;-75
2021/07/03 07:20:18;;;;;;;;;9.33;9.33;;;;;;;;5052180;28;45462;-75
2021/07/03 07:22:44;;;;;;;;;10.67;10.67;;;;;;;;5051935;28;45468;-81
2021/07/03 07:25:09;;;;;;;;;12.33;9.33;;;;;;;;5064500;28;47931;-75
2021/07/03 07:27:34;;;;;;;;;13.50;11.00;;;;;;;;5054604;27;45461;-69
2021/07/03 07:30:00;;;;;;;;;10.33;10.33;;;;;;;;5045547;28;45467;-70
2021/07/03 07:32:26;;;;;;;;;11.25;11.25;;;;;;;;5050298;28;45519;-69
2021/07/03 07:34:51;;;;;;;;;12.00;11.00;;;;;;;;5038634;28;45624;-70
2021/07/03 07:37:16;;;;;;;;;11.33;10.00;;;;;;;;5043754;28;45327;-71
2021/07/03 07:39:41;;;;;;;;;13.00;11.67;;;;;;;;5059568;28;45394;-70
2021/07/03 07:42:07;;;;;;;;;12.67;12.00;;;;;;;;5056761;28;45558;-72
2021/07/03 07:44:32;;;;;;;;;12.25;10.75;;;;;;;;5076877;27;47325;-72
2021/07/03 07:46:57;;;;;;;;;12.50;11.50;;;;;;;;5061204;28;45487;-70
2021/07/03 07:49:23;;;;;;;;;11.50;11.00;;;;;;;;5059566;28;45600;-75
2021/07/03 07:51:48;;;;;;;;;13.00;10.67;;;;;;;;5048920;28;45481;-70
2021/07/03 07:54:13;;;;;;;;;13.00;11.33;;;;;;;;5047357;28;45462;-76
2021/07/03 07:56:38;;;;;;;;;12.00;11.00;;;;;;;;5050475;28;46606;-70
2021/07/03 07:59:04;;;;;;;;;13.33;11.67;;;;;;;;5050818;28;45583;-69
2021/07/03 08:01:29;;;;;;;;;12.33;9.67;;;;;;;;5043429;28;45436;-69
2021/07/03 08:03:54;;;;;;;;;14.50;12.25;;;;;;;;5053383;28;46026;-70
2021/07/03 08:06:19;;;;;;;;;11.67;11.00;;;;;;;;5050127;28;45381;-69
2021/07/03 08:08:45;;;;;;;;;10.67;10.00;;;;;;;;5051952;28;45427;-69
2021/07/03 08:11:10;;;;;;;;;9.00;9.00;;;;;;;;5049510;28;45464;-70
2021/07/03 08:13:35;;;;;;;;;11.67;10.00;;;;;;;;5050859;28;45521;-71
2021/07/03 08:16:00;;;;;;;;;11.33;9.33;;;;;;;;5051567;28;45462;-71
2021/07/03 08:18:26;;;;;;;;;14.00;10.33;;;;;;;;5039777;28;45463;-67
2021/07/03 08:20:52;;;;;;;;;14.50;12.00;;;;;;;;5049244;28;45562;-68
2021/07/03 08:23:17;;;;;;;;;11.25;9.00;;;;;;;;5050561;28;45997;-73
2021/07/03 08:25:42;;;;;;;;;7.75;7.75;;;;;;;;5050689;28;45517;-70
2021/07/03 08:28:08;;;;;;;;;10.25;9.50;;;;;;;;5052309;28;45609;-69
2021/07/03 08:30:34;;;;;;;;;11.50;10.00;;;;;;;;5050972;28;45535;-69
2021/07/03 08:33:00;;;;;;;;;10.00;10.00;;;;;;;;5048765;28;46394;-69
2021/07/03 08:35:25;;;;;;;;;12.00;11.00;;;;;;;;5044984;28;46032;-70
2021/07/03 08:37:50;;;;;;;;;16.00;10.00;;;;;;;;5040602;28;45498;-68
2021/07/03 08:40:16;;;;;;;;;13.67;10.33;;;;;;;;5044604;28;45578;-69
2021/07/03 08:42:42;;;;;;;;;13.25;12.00;;;;;;;;5052331;28;46237;-72
2021/07/03 08:45:07;;;;;;;;;9.50;8.25;;;;;;;;5048468;28;45571;-70
2021/07/03 08:47:33;;;;;;;;;9.75;9.75;;;;;;;;5048921;28;45510;-70
2021/07/03 08:50:00;;;;;;;;;17.00;12.25;;;;;;;;5046247;28;45489;-70
2021/07/03 08:52:26;;;;;;;;;13.00;13.00;;;;;;;;5049849;28;47326;-70
2021/07/03 08:55:10;;;;;;;;;10.50;10.25;;;;;;;;5050748;28;45846;-69
2021/07/03 08:57:41;;;;;;;;;12.00;10.00;;;;;;;;5042966;28;45626;-67
2021/07/03 09:00:06;;;;;;;;;11.50;11.25;;;;;;;;5038194;28;45687;-72
2021/07/03 09:02:39;;;;;;;;;9.50;8.75;;;;;;;;5051493;28;45402;-72
2021/07/03 09:05:16;;;;;;;;;11.00;10.25;;;;;;;;5050627;28;46060;-67
2021/07/03 09:07:41;;;;;;;;;13.00;12.75;;;;;;;;5051501;28;45493;-66
2021/07/03 09:10:06;;;;;;;;;13.00;12.00;;;;;;;;5053012;28;45448;-67
2021/07/03 09:12:33;;;;;;;;;11.00;8.50;;;;;;;;5037962;28;45599;-67
2021/07/03 09:15:09;;;;;;;;;11.00;9.00;;;;;;;;5046438;28;45581;-67
2021/07/03 09:17:43;;;;;;;;;8.75;8.75;;;;;;;;5059345;27;45485;-74
2021/07/03 09:20:09;;;;;;;;;6.50;6.50;;;;;;;;5045579;28;45343;-85
2021/07/03 09:22:34;;;;;;;;;9.00;8.50;;;;;;;;5052027;28;45454;-86
2021/07/03 09:24:59;;;;;;;;;11.00;9.00;;;;;;;;5054807;28;45397;-75
2021/07/03 09:27:24;;;;;;;;;14.00;10.00;;;;;;;;5053432;28;45462;-77
2021/07/03 09:29:53;;;;;;;;;8.00;7.00;;;;;;;;5058215;28;45413;-76
2021/07/03 09:32:18;;;;;;;;;12.25;8.50;;;;;;;;5060435;28;45593;-76
2021/07/03 09:34:43;;;;;;;;;8.33;8.33;;;;;;;;5061240;28;45571;-76
2021/07/03 09:37:12;;;;;;;;;9.50;9.50;;;;;;;;5063196;28;45437;-76
2021/07/03 09:39:37;;;;;;;;;7.50;7.50;;;;;;;;5055346;27;45698;-76
2021/07/03 09:42:11;;;;;;;;;7.25;7.25;;;;;;;;5053195;28;45580;-76
2021/07/03 09:44:36;;;;;;;;;8.25;7.00;;;;;;;;5058221;27;45747;-75
2021/07/03 09:47:01;;;;;;;;;6.67;6.67;;;;;;;;5045815;28;46158;-76
2021/07/03 09:49:28;;;;;;;;;9.00;7.50;;;;;;;;5045893;28;45520;-76
2021/07/03 09:52:00;;;;;;;;;10.00;8.50;;;;;;;;5045822;28;46125;-76
2021/07/03 09:54:29;;;;;;;;;7.25;6.00;;;;;;;;5050307;28;45482;-76
2021/07/03 09:56:58;;;;;;;;;10.00;8.50;;;;;;;;5050402;28;45521;-76
2021/07/03 09:59:30;;;;;;;;;9.50;8.75;;;;;;;;5049812;28;45538;-76
2021/07/03 10:01:56;;;;;;;;;13.00;9.25;;;;;;;;5050810;28;45318;-75
2021/07/03 10:04:21;;;;;;;;;8.25;7.00;;;;;;;;5038896;28;45300;-75
2021/07/03 10:06:51;;;;;;;;;13.33;9.00;;;;;;;;5050843;28;45450;-76
2021/07/03 10:09:49;;;;;;;;;8.50;8.00;;;;;;;;5050168;28;45639;-73
2021/07/03 10:12:15;;;;;;;;;8.00;7.25;;;;;;;;4967807;28;45437;-76
2021/07/03 10:14:47;;;;;;;;;9.00;9.00;;;;;;;;4968839;28;46388;-73
2021/07/03 10:17:21;;;;;;;;;10.50;8.50;;;;;;;;4967704;28;45457;-75
2021/07/03 10:19:47;;;;;;;;;7.50;6.75;;;;;;;;4966459;28;45577;-75
2021/07/03 10:22:20;;;;;;;;;7.50;7.50;;;;;;;;4969894;28;45600;-73
2021/07/03 10:24:45;;;;;;;;;5.00;5.00;;;;;;;;4970181;28;45680;-74
2021/07/03 10:27:24;;;;;;;;;7.25;7.25;;;;;;;;4969878;28;45600;-76
2021/07/03 10:29:50;;;;;;;;;8.00;5.50;;;;;;;;4967829;28;45418;-76
2021/07/03 10:32:21;;;;;;;;;8.50;6.25;;;;;;;;4972425;28;45364;-76
2021/07/03 10:34:46;;;;;;;;;6.00;6.00;;;;;;;;4970243;28;45766;-77
2021/07/03 10:37:15;;;;;;;;;5.00;5.00;;;;;;;;4970653;28;45477;-75
2021/07/03 10:39:40;;;;;;;;;5.50;5.50;;;;;;;;4972452;28;45620;-73
2021/07/03 10:42:05;;;;;;;;;10.00;8.00;;;;;;;;4971006;28;47183;-75
2021/07/03 10:44:38;;;;;;;;;7.67;7.00;;;;;;;;4970811;28;45493;-75
2021/07/03 10:47:10;;;;;;;;;7.75;7.00;;;;;;;;4981521;28;45537;-76
2021/07/03 10:49:37;;;;;;;;;9.00;7.00;;;;;;;;5047871;28;45415;-76
2021/07/03 10:52:11;;;;;;;;;7.75;7.00;;;;;;;;5047035;28;45507;-76
2021/07/03 10:54:36;;;;;;;;;6.75;6.75;;;;;;;;5051339;28;45598;-76
2021/07/03 10:57:04;;;;;;;;;8.00;7.00;;;;;;;;5052596;28;45362;-75
2021/07/03 10:59:37;;;;;;;;;6.00;6.00;;;;;;;;5051163;28;45588;-76
2021/07/03 11:02:10;;;;;;;;;5.00;4.00;;;;;;;;5052940;28;45422;-74
2021/07/03 11:04:44;;;;;;;;;6.00;4.50;;;;;;;;5052305;28;45674;-75
2021/07/03 11:07:11;;;;;;;;;3.00;3.00;;;;;;;;5053465;28;45404;-73
2021/07/03 11:09:36;;;;;;;;;5.75;2.00;;;;;;;;5051890;28;45824;-73
2021/07/03 11:12:12;;;;;;;;;4.00;4.00;;;;;;;;5050988;28;46117;-73
2021/07/03 11:14:46;;;;;;;;;4.25;4.25;;;;;;;;5051696;28;45690;-76
2021/07/03 11:17:14;;;;;;;;;6.00;4.75;;;;;;;;5053221;28;45650;-75
2021/07/03 11:19:42;;;;;;;;;3.50;3.00;;;;;;;;5053243;28;45584;-74
2021/07/03 11:22:09;;;;;;;;;4.50;4.50;;;;;;;;5055076;28;45543;-72
2021/07/03 11:24:42;;;;;;;;;4.75;4.75;;;;;;;;5052027;28;45426;-75
2021/07/03 11:27:07;;;;;;;;;4.00;4.00;;;;;;;;5053266;28;45418;-72
2021/07/03 11:29:32;;;;;;;;;3.75;3.00;;;;;;;;5053315;28;45766;-72
2021/07/03 11:32:05;;;;;;;;;4.00;4.00;;;;;;;;5052249;28;46001;-72
2021/07/03 11:34:31;;;;;;;;;5.25;4.75;;;;;;;;5058436;28;45421;-73
2021/07/03 11:36:56;;;;;;;;;3.75;3.75;;;;;;;;5053525;28;45574;-72
2021/07/03 11:39:21;;;;;;;;;5.25;3.75;;;;;;;;5052857;28;45488;-73
2021/07/03 11:41:46;;;;;;;;;4.00;3.00;;;;;;;;5052768;28;46288;-73
2021/07/03 11:44:27;;;;;;;;;4.75;4.75;;;;;;;;4967670;28;46076;-73
2021/07/03 11:46:52;;;;;;;;;5.00;5.00;;;;;;;;4959703;28;45995;-73
2021/07/03 11:49:17;;;;;;;;;5.00;5.00;;;;;;;;4966566;28;45489;-73
2021/07/03 11:51:42;;;;;;;;;3.00;3.00;;;;;;;;4967142;28;45504;-73
2021/07/03 11:54:08;;;;;;;;;3.00;3.00;;;;;;;;4963531;28;45589;-74
2021/07/03 11:56:33;;;;;;;;;4.00;3.00;;;;;;;;4954741;28;45489;-73
2021/07/03 11:58:58;;;;;;;;;2.33;2.33;;;;;;;;4964380;28;45489;-73
2021/07/03 12:01:24;;;;;;;;;4.00;3.00;;;;;;;;4967115;28;46102;-73
2021/07/03 12:03:50;;;;;;;;;2.50;2.50;;;;;;;;4967323;28;45448;-74
2021/07/03 12:06:19;;;;;;;;;1.75;1.75;;;;;;;;4966952;28;45568;-72
2021/07/03 12:08:46;;;;;;;;;2.75;2.50;;;;;;;;4966006;28;45522;-74
2021/07/03 12:11:12;;;;;;;;;3.00;2.50;;;;;;;;4960494;28;46343;-74
2021/07/03 12:13:39;;;;;;;;;2.75;2.75;;;;;;;;4965608;28;45414;-73
2021/07/03 12:16:11;;;;;;;;;4.25;3.00;;;;;;;;4969303;28;45370;-72
2021/07/03 12:18:38;;;;;;;;;4.00;4.00;;;;;;;;4966194;28;45560;-73
2021/07/03 12:21:04;;;;;;;;;3.50;3.50;;;;;;;;4973016;28;46343;-72
2021/07/03 12:23:29;;;;;;;;;5.00;5.00;;;;;;;;5051461;27;45339;-74
2021/07/03 12:25:54;;;;;;;;;4.75;4.75;;;;;;;;5049159;28;47486;-73
2021/07/03 12:28:20;;;;;;;;;5.50;5.50;;;;;;;;5052640;28;45516;-74
2021/07/03 12:30:46;;;;;;;;;6.00;6.00;;;;;;;;5053683;28;46209;-73
2021/07/03 12:33:12;;;;;;;;;7.00;6.75;;;;;;;;5050113;28;45769;-74
2021/07/03 12:35:40;;;;;;;;;7.00;6.50;;;;;;;;5051383;28;46171;-75
2021/07/03 12:38:06;;;;;;;;;6.00;6.00;;;;;;;;5048421;28;45788;-75
2021/07/03 12:40:33;;;;;;;;;7.00;6.00;;;;;;;;5042746;28;46060;-74
2021/07/03 12:42:59;;;;;;;;;6.00;6.00;;;;;;;;5052747;28;45392;-74
2021/07/03 12:45:24;;;;;;;;;6.00;6.00;;;;;;;;5050158;28;45516;-75
2021/07/03 12:47:50;;;;;;;;;6.67;6.00;;;;;;;;5052131;28;45493;-76
2021/07/03 12:50:21;;;;;;;;;6.00;6.00;;;;;;;;5047711;28;46140;-76
2021/07/03 12:52:46;;;;;;;;;6.00;6.00;;;;;;;;5051843;28;45477;-75
2021/07/03 12:55:11;;;;;;;;;6.00;4.50;;;;;;;;5053007;28;45883;-75
2021/07/03 12:57:42;;;;;;;;;6.75;5.75;;;;;;;;5050437;28;45599;-75
2021/07/03 13:00:07;;;;;;;;;6.75;6.75;;;;;;;;5046504;28;46002;-75
2021/07/03 13:02:34;;;;;;;;;6.75;4.50;;;;;;;;5050642;28;45509;-75
2021/07/03 13:05:00;;;;;;;;;6.00;6.00;;;;;;;;5050783;28;45560;-75
2021/07/03 13:07:25;;;;;;;;;6.25;5.00;;;;;;;;5051812;28;45371;-73
2021/07/03 13:09:50;;;;;;;;;6.00;6.00;;;;;;;;5051239;28;46049;-75
2021/07/03 13:12:15;;;;;;;;;7.67;5.67;;;;;;;;5050770;28;45406;-75
2021/07/03 13:14:41;;;;;;;;;8.00;6.00;;;;;;;;5050202;28;45287;-71
2021/07/03 13:17:06;;;;;;;;;7.75;7.25;;;;;;;;5050973;28;45492;-73
2021/07/03 13:19:31;;;;;;;;;6.75;5.00;;;;;;;;5052906;28;45530;-75
2021/07/03 13:21:57;;;;;;;;;10.33;7.67;;;;;;;;5053238;28;45599;-74
2021/07/03 13:24:22;;;;;;;;;7.00;7.00;;;;;;;;5051635;28;45397;-76
2021/07/03 13:26:47;;;;;;;;;8.00;6.25;;;;;;;;5051067;28;45476;-75
2021/07/03 13:29:12;;;;;;;;;6.00;6.00;;;;;;;;5057017;28;45395;-73
2021/07/03 13:31:38;;;;;;;;;7.50;6.50;;;;;;;;5048948;28;45699;-73
2021/07/03 13:34:03;;;;;;;;;9.67;6.00;;;;;;;;5052818;28;45463;-73
2021/07/03 13:36:28;;;;;;;;;8.33;7.33;;;;;;;;5050956;28;45497;-74
2021/07/03 13:38:53;;;;;;;;;5.75;5.75;;;;;;;;5051166;28;45996;-75
2021/07/03 13:41:19;;;;;;;;;11.00;6.25;;;;;;;;5048939;28;45671;-75
2021/07/03 13:43:44;;;;;;;;;7.25;6.75;;;;;;;;5050417;28;45978;-79
2021/07/03 13:46:12;;;;;;;;;7.00;7.00;;;;;;;;5051502;28;45621;-75
2021/07/03 13:48:37;;;;;;;;;6.75;6.75;;;;;;;;5051207;28;46254;-75
2021/07/03 13:51:02;;;;;;;;;6.67;6.33;;;;;;;;5050476;28;45426;-75
2021/07/03 13:53:27;;;;;;;;;7.33;6.33;;;;;;;;5049070;28;45488;-75
2021/07/03 13:55:53;;;;;;;;;6.25;6.25;;;;;;;;5051743;28;45479;-75
2021/07/03 13:58:19;;;;;;;;;7.50;7.00;;;;;;;;5051161;28;46314;-75
2021/07/03 14:00:44;;;;;;;;;6.25;5.25;;;;;;;;5050087;28;45472;-75
2021/07/03 14:03:10;;;;;;;;;6.00;6.00;;;;;;;;5051715;28;46095;-74
2021/07/03 14:05:35;;;;;;;;;6.75;6.75;;;;;;;;5049625;28;45569;-75
2021/07/03 14:08:00;;;;;;;;;7.50;6.00;;;;;;;;5048986;28;46049;-75
2021/07/03 14:10:26;;;;;;;;;4.67;4.67;;;;;;;;5051599;28;45386;-74
2021/07/03 14:12:51;;;;;;;;;8.33;6.00;;;;;;;;5050104;28;45467;-74
2021/07/03 14:15:16;;;;;;;;;6.00;6.00;;;;;;;;5051010;28;45549;-73
2021/07/03 14:17:41;;;;;;;;;4.00;4.00;;;;;;;;5050546;28;45344;-75
2021/07/03 14:20:08;;;;;;;;;4.33;4.33;;;;;;;;5049188;28;45539;-74